createdAt,value
2017-10-29T00:02:01.911Z,98.47
2017-10-29T00:04:36.795Z,98.58
2017-10-29T00:07:11.644Z,98.16
2017-10-29T00:09:46.135Z,97.79
2017-10-29T00:12:21.771Z,98.16
2017-10-29T00:14:56.394Z,98.81
2017-10-29T00:17:31.280Z,99.37
2017-10-29T00:20:06.154Z,99.96
2017-10-29T00:22:41.710Z,99.99
2017-10-29T00:25:16.443Z,100.00
2017-10-29T00:27:51.047Z,99.98
2017-10-29T00:30:25.447Z,99.54
2017-10-29T00:33:00.327Z,99.67
2017-10-29T00:35:35.023Z,99.73
2017-10-29T00:38:09.736Z,100.00
2017-10-29T00:40:45.311Z,100.00
2017-10-29T00:43:19.947Z,100.00
2017-10-29T00:45:54.683Z,99.97
2017-10-29T00:48:29.515Z,99.24
2017-10-29T00:51:04.024Z,98.56
2017-10-29T00:53:39.022Z,98.35
2017-10-29T00:56:13.810Z,97.82
2017-10-29T00:58:48.497Z,97.70
2017-10-29T01:01:23.415Z,97.39
2017-10-29T01:03:58.847Z,96.83
2017-10-29T01:06:33.763Z,96.75
2017-10-29T01:09:08.623Z,97.03
2017-10-29T01:11:43.314Z,97.51
2017-10-29T01:14:17.990Z,97.35
2017-10-29T01:16:52.506Z,97.40
2017-10-29T01:19:27.583Z,97.28
2017-10-29T01:22:02.144Z,96.44
2017-10-29T01:24:36.740Z,95.41
2017-10-29T01:27:11.462Z,94.57
2017-10-29T01:29:46.223Z,94.51
2017-10-29T01:32:20.918Z,94.33
2017-10-29T01:34:55.167Z,93.96
2017-10-29T01:37:29.584Z,94.35
2017-10-29T01:40:04.419Z,94.77
2017-10-29T01:42:38.962Z,94.07
2017-10-29T01:45:13.600Z,94.33
2017-10-29T01:47:49.591Z,94.00
2017-10-29T01:50:24.303Z,94.25
2017-10-29T01:52:59.149Z,93.37
2017-10-29T01:55:33.811Z,92.73
2017-10-29T01:58:08.598Z,91.64
2017-10-29T02:00:42.995Z,91.25
2017-10-29T02:03:18.081Z,91.39
2017-10-29T02:05:52.895Z,90.97
2017-10-29T02:08:27.639Z,91.32
2017-10-29T02:11:02.455Z,91.50
2017-10-29T02:13:39.118Z,91.68
2017-10-29T02:16:13.759Z,91.38
2017-10-29T02:18:48.382Z,91.03
2017-10-29T02:21:23.110Z,91.31
2017-10-29T02:23:57.860Z,90.23
2017-10-29T02:26:33.427Z,89.70
2017-10-29T02:29:08.140Z,89.43
2017-10-29T02:31:42.986Z,89.63
2017-10-29T02:34:18.055Z,89.55
2017-10-29T02:36:53.248Z,90.54
2017-10-29T02:39:27.854Z,90.52
2017-10-29T02:42:02.518Z,90.77
2017-10-29T02:44:37.687Z,90.82
2017-10-29T02:47:12.170Z,90.30
2017-10-29T02:49:47.073Z,89.67
2017-10-29T02:52:21.812Z,89.43
2017-10-29T02:54:57.011Z,89.17
2017-10-29T02:57:31.266Z,89.28
2017-10-29T03:00:07.269Z,88.98
2017-10-29T03:02:41.503Z,88.15
2017-10-29T03:05:16.587Z,88.12
2017-10-29T03:07:51.502Z,88.25
2017-10-29T03:10:27.074Z,87.95
2017-10-29T03:13:01.471Z,88.29
2017-10-29T03:15:36.373Z,87.93
2017-10-29T03:18:11.639Z,87.91
2017-10-29T03:20:46.708Z,87.97
2017-10-29T03:23:21.294Z,88.04
2017-10-29T03:25:56.048Z,88.26
2017-10-29T03:28:30.831Z,87.77
2017-10-29T03:31:05.548Z,87.04
2017-10-29T03:33:40.328Z,87.03
2017-10-29T03:36:15.035Z,87.11
2017-10-29T03:38:49.792Z,86.58
2017-10-29T03:41:24.742Z,86.64
2017-10-29T03:43:59.539Z,86.09
2017-10-29T03:46:34.470Z,87.32
2017-10-29T03:49:09.254Z,88.15
2017-10-29T03:51:43.974Z,89.39
2017-10-29T03:54:18.794Z,89.29
2017-10-29T03:56:53.763Z,89.71
2017-10-29T03:59:28.118Z,86.87
2017-10-29T04:02:02.746Z,87.15
2017-10-29T04:04:37.407Z,86.40
2017-10-29T04:07:12.316Z,87.16
2017-10-29T04:09:47.002Z,87.85
2017-10-29T04:12:21.679Z,87.15
2017-10-29T04:14:56.442Z,86.67
2017-10-29T04:17:31.176Z,85.81
2017-10-29T04:20:06.071Z,84.85
2017-10-29T04:22:41.611Z,84.02
2017-10-29T04:25:16.235Z,84.35
2017-10-29T04:27:50.875Z,81.69
2017-10-29T04:30:26.562Z,80.04
2017-10-29T04:33:01.242Z,75.27
2017-10-29T04:35:35.754Z,73.91
2017-10-29T04:38:10.285Z,74.47
2017-10-29T04:40:45.339Z,72.28
2017-10-29T04:43:20.772Z,71.29
2017-10-29T04:45:55.311Z,73.34
2017-10-29T04:48:30.419Z,73.85
2017-10-29T04:51:04.864Z,73.74
2017-10-29T04:53:40.011Z,73.82
2017-10-29T04:56:14.737Z,74.67
2017-10-29T04:58:49.451Z,74.58
2017-10-29T05:01:24.426Z,73.77
2017-10-29T05:03:59.275Z,74.10
2017-10-29T05:06:34.937Z,72.87
2017-10-29T05:09:09.800Z,71.71
2017-10-29T05:11:44.734Z,72.33
2017-10-29T05:14:19.496Z,71.30
2017-10-29T05:16:54.619Z,72.26
2017-10-29T05:19:29.210Z,73.05
2017-10-29T05:22:03.823Z,73.21
2017-10-29T05:24:38.794Z,73.25
2017-10-29T05:27:13.515Z,72.52
2017-10-29T05:29:48.511Z,72.62
2017-10-29T05:32:22.841Z,73.46
2017-10-29T05:34:58.011Z,73.12
2017-10-29T05:37:32.738Z,74.50
2017-10-29T05:40:07.117Z,73.65
2017-10-29T05:42:42.274Z,72.92
2017-10-29T05:45:16.743Z,73.49
2017-10-29T05:47:51.713Z,73.06
2017-10-29T05:50:26.607Z,73.67
2017-10-29T05:53:01.066Z,72.97
2017-10-29T05:55:35.706Z,73.49
2017-10-29T05:58:10.703Z,72.86
2017-10-29T06:00:44.935Z,72.92
2017-10-29T06:03:19.538Z,73.38
2017-10-29T06:05:54.540Z,73.12
2017-10-29T06:08:29.443Z,73.31
2017-10-29T06:11:03.575Z,73.26
2017-10-29T06:13:39.123Z,74.20
2017-10-29T06:16:13.455Z,73.84
2017-10-29T06:18:48.083Z,74.16
2017-10-29T06:21:22.971Z,73.25
2017-10-29T06:23:57.854Z,73.76
2017-10-29T06:26:32.746Z,73.71
2017-10-29T06:29:08.871Z,73.90
2017-10-29T06:31:43.546Z,74.37
2017-10-29T06:34:18.291Z,74.18
2017-10-29T06:36:53.091Z,73.54
2017-10-29T06:39:27.810Z,73.89
2017-10-29T06:42:02.671Z,73.10
2017-10-29T06:44:37.467Z,73.72
2017-10-29T06:47:12.303Z,73.66
2017-10-29T06:49:47.035Z,73.91
2017-10-29T06:52:22.952Z,74.62
2017-10-29T06:54:57.535Z,75.15
2017-10-29T06:57:32.632Z,75.20
2017-10-29T07:00:06.998Z,75.73
2017-10-29T07:02:41.630Z,75.86
2017-10-29T07:05:16.738Z,75.75
2017-10-29T07:07:51.465Z,75.53
2017-10-29T07:10:27.160Z,75.50
2017-10-29T07:13:01.535Z,75.63
2017-10-29T07:15:36.207Z,75.50
2017-10-29T07:18:10.826Z,77.73
2017-10-29T07:20:45.664Z,79.28
2017-10-29T07:23:20.620Z,79.39
2017-10-29T07:25:56.170Z,80.36
2017-10-29T07:28:30.531Z,79.73
2017-10-29T07:31:05.590Z,79.75
2017-10-29T07:33:40.301Z,80.30
2017-10-29T07:36:14.930Z,80.99
2017-10-29T07:38:49.763Z,80.25
2017-10-29T07:41:24.367Z,80.22
2017-10-29T07:43:59.260Z,79.09
2017-10-29T07:46:34.266Z,78.75
2017-10-29T07:49:09.046Z,79.13
2017-10-29T07:51:43.998Z,79.11
2017-10-29T07:54:18.739Z,78.86
2017-10-29T07:56:53.716Z,78.29
2017-10-29T07:59:28.467Z,77.62
2017-10-29T08:02:03.288Z,76.92
2017-10-29T08:04:38.231Z,76.98
2017-10-29T08:07:13.046Z,77.02
2017-10-29T08:09:48.003Z,76.58
2017-10-29T08:12:22.583Z,75.19
2017-10-29T08:14:57.439Z,73.56
2017-10-29T08:17:32.485Z,71.94
2017-10-29T08:20:06.895Z,72.02
2017-10-29T08:22:41.863Z,71.59
2017-10-29T08:25:16.752Z,70.28
2017-10-29T08:27:51.567Z,70.80
2017-10-29T08:30:26.299Z,70.07
2017-10-29T08:33:01.095Z,68.40
2017-10-29T08:35:35.810Z,68.90
2017-10-29T08:38:10.418Z,69.17
2017-10-29T08:40:45.214Z,68.18
2017-10-29T08:43:19.991Z,68.51
2017-10-29T08:45:54.701Z,67.69
2017-10-29T08:48:30.005Z,67.04
2017-10-29T08:51:05.415Z,66.78
2017-10-29T08:53:40.081Z,66.03
2017-10-29T08:56:14.916Z,67.02
2017-10-29T08:58:49.687Z,67.39
2017-10-29T09:01:24.692Z,65.95
2017-10-29T09:03:59.546Z,69.19
2017-10-29T09:06:34.269Z,71.19
2017-10-29T09:09:09.949Z,72.55
2017-10-29T09:11:44.546Z,74.59
2017-10-29T09:14:19.403Z,73.71
2017-10-29T09:16:54.243Z,72.72
2017-10-29T09:19:29.019Z,73.63
2017-10-29T09:22:03.723Z,74.24
2017-10-29T09:24:39.342Z,74.42
2017-10-29T09:27:14.023Z,72.39
2017-10-29T09:29:48.796Z,70.76
2017-10-29T09:32:23.506Z,71.32
2017-10-29T09:34:58.275Z,70.79
2017-10-29T09:37:34.292Z,69.72
2017-10-29T09:40:08.679Z,70.27
2017-10-29T09:42:43.515Z,68.93
2017-10-29T09:45:18.413Z,69.63
2017-10-29T09:47:53.411Z,70.05
2017-10-29T09:50:28.114Z,68.13
2017-10-29T09:53:03.096Z,67.75
2017-10-29T09:55:37.828Z,68.30
2017-10-29T09:58:12.154Z,67.57
2017-10-29T10:00:46.566Z,67.26
2017-10-29T10:03:21.167Z,67.38
2017-10-29T10:05:55.987Z,65.71
2017-10-29T10:08:30.683Z,66.10
2017-10-29T10:11:06.025Z,66.10
2017-10-29T10:13:40.510Z,65.92
2017-10-29T10:16:15.356Z,64.79
2017-10-29T10:18:50.971Z,65.49
2017-10-29T10:21:25.586Z,65.41
2017-10-29T10:24:00.291Z,64.96
2017-10-29T10:26:35.054Z,64.91
2017-10-29T10:29:09.877Z,64.29
2017-10-29T10:31:44.406Z,65.23
2017-10-29T10:34:19.268Z,64.83
2017-10-29T10:36:53.983Z,67.41
2017-10-29T10:39:28.603Z,69.56
2017-10-29T10:42:03.431Z,70.40
2017-10-29T10:44:38.393Z,70.27
2017-10-29T10:47:13.072Z,70.12
2017-10-29T10:49:47.821Z,69.66
2017-10-29T10:52:22.363Z,70.98
2017-10-29T10:54:57.211Z,71.96
2017-10-29T10:57:32.749Z,72.75
2017-10-29T11:00:07.655Z,73.31
2017-10-29T11:02:42.492Z,73.15
2017-10-29T11:05:17.246Z,72.65
2017-10-29T11:07:51.819Z,71.98
2017-10-29T11:10:27.159Z,72.36
2017-10-29T11:13:02.359Z,73.99
2017-10-29T11:15:37.975Z,75.59
2017-10-29T11:18:13.002Z,76.85
2017-10-29T11:20:48.479Z,77.96
2017-10-29T11:23:23.210Z,79.00
2017-10-29T11:25:57.906Z,80.12
2017-10-29T11:28:32.619Z,79.75
2017-10-29T11:31:07.494Z,79.44
2017-10-29T11:33:42.288Z,78.22
2017-10-29T11:36:17.100Z,75.83
2017-10-29T11:38:51.887Z,75.47
2017-10-29T11:41:26.359Z,70.80
2017-10-29T11:44:01.495Z,70.30
2017-10-29T11:46:36.006Z,69.26
2017-10-29T11:49:10.774Z,69.26
2017-10-29T11:51:45.399Z,68.31
2017-10-29T11:54:20.131Z,68.96
2017-10-29T11:56:55.775Z,67.45
2017-10-29T11:59:30.411Z,67.72
2017-10-29T12:02:04.782Z,69.31
2017-10-29T12:04:39.971Z,71.17
2017-10-29T12:07:14.698Z,73.12
2017-10-29T12:09:50.503Z,73.80
2017-10-29T12:12:26.398Z,75.14
2017-10-29T12:15:00.868Z,76.57
2017-10-29T12:17:35.439Z,77.85
2017-10-29T12:20:10.679Z,78.20
2017-10-29T12:22:45.910Z,78.06
2017-10-29T12:25:20.956Z,77.84
2017-10-29T12:27:55.739Z,73.63
2017-10-29T12:30:31.440Z,72.09
2017-10-29T12:33:06.182Z,71.50
2017-10-29T12:35:40.807Z,68.48
2017-10-29T12:38:16.551Z,68.07
2017-10-29T12:40:51.171Z,67.15
2017-10-29T12:43:25.914Z,67.41
2017-10-29T12:46:00.595Z,68.18
2017-10-29T12:48:35.363Z,67.75
2017-10-29T12:51:10.455Z,67.74
2017-10-29T12:53:45.732Z,66.66
2017-10-29T12:56:20.313Z,66.75
2017-10-29T12:58:54.635Z,66.32
2017-10-29T13:01:29.619Z,65.60
2017-10-29T13:04:04.194Z,66.66
2017-10-29T13:06:39.120Z,65.34
2017-10-29T13:09:14.325Z,65.84
2017-10-29T13:11:49.584Z,66.44
2017-10-29T13:14:24.330Z,65.82
2017-10-29T13:16:59.214Z,66.17
2017-10-29T13:19:34.815Z,67.43
2017-10-29T13:22:09.556Z,67.54
2017-10-29T13:24:45.243Z,66.13
2017-10-29T13:27:20.179Z,66.62
2017-10-29T13:29:54.928Z,67.02
2017-10-29T13:32:29.582Z,62.92
2017-10-29T13:35:04.124Z,60.32
2017-10-29T13:37:39.123Z,61.06
2017-10-29T13:40:13.972Z,62.15
2017-10-29T13:42:48.619Z,64.03
2017-10-29T13:45:23.382Z,68.72
2017-10-29T13:47:58.143Z,70.28
2017-10-29T13:50:32.742Z,70.51
2017-10-29T13:53:08.323Z,71.58
2017-10-29T13:55:43.126Z,72.28
2017-10-29T13:58:18.175Z,71.86
2017-10-29T14:00:53.158Z,71.99
2017-10-29T14:03:27.947Z,71.37
2017-10-29T14:06:02.790Z,70.80
2017-10-29T14:08:38.401Z,70.87
2017-10-29T14:11:13.446Z,69.30
2017-10-29T14:13:48.065Z,71.45
2017-10-29T14:16:22.775Z,69.99
2017-10-29T14:18:57.650Z,70.15
2017-10-29T14:21:32.359Z,70.19
2017-10-29T14:24:06.863Z,70.18
2017-10-29T14:26:41.738Z,69.82
2017-10-29T14:29:16.723Z,69.95
2017-10-29T14:31:51.835Z,69.18
2017-10-29T14:34:26.668Z,68.84
2017-10-29T14:37:01.274Z,68.76
2017-10-29T14:39:36.955Z,69.70
2017-10-29T14:42:11.606Z,70.59
2017-10-29T14:44:46.362Z,71.64
2017-10-29T14:47:21.071Z,72.37
2017-10-29T14:49:55.863Z,72.38
2017-10-29T14:52:30.595Z,71.80
2017-10-29T14:55:05.673Z,71.99
2017-10-29T14:57:40.399Z,73.15
2017-10-29T15:00:15.154Z,73.69
2017-10-29T15:02:49.987Z,73.79
2017-10-29T15:05:24.814Z,74.28
2017-10-29T15:07:59.526Z,74.87
2017-10-29T15:10:34.487Z,75.32
2017-10-29T15:13:09.275Z,75.58
2017-10-29T15:15:44.143Z,75.43
2017-10-29T15:18:18.875Z,75.17
2017-10-29T15:20:54.507Z,75.22
2017-10-29T15:23:29.115Z,74.06
2017-10-29T15:26:03.835Z,74.78
2017-10-29T15:28:38.751Z,73.73
2017-10-29T15:31:13.675Z,71.22
2017-10-29T15:33:48.175Z,70.31
2017-10-29T15:36:22.910Z,70.95
2017-10-29T15:38:57.484Z,70.96
2017-10-29T15:41:32.150Z,70.54
2017-10-29T15:44:06.918Z,69.83
2017-10-29T15:46:41.686Z,69.89
2017-10-29T15:49:16.407Z,69.49
2017-10-29T15:51:51.513Z,69.82
2017-10-29T15:54:26.115Z,70.65
2017-10-29T15:57:01.916Z,70.62
2017-10-29T15:59:36.940Z,70.02
2017-10-29T16:02:11.346Z,70.05
2017-10-29T16:04:46.138Z,70.42
2017-10-29T16:07:20.846Z,70.13
2017-10-29T16:09:55.680Z,70.82
2017-10-29T16:12:30.599Z,70.84
2017-10-29T16:15:05.331Z,70.91
2017-10-29T16:17:40.107Z,70.83
2017-10-29T16:20:14.911Z,70.81
2017-10-29T16:22:49.555Z,71.47
2017-10-29T16:25:24.341Z,71.67
2017-10-29T16:27:59.163Z,71.50
2017-10-29T16:30:33.855Z,71.16
2017-10-29T16:33:08.596Z,71.25
2017-10-29T16:35:43.270Z,71.12
2017-10-29T16:38:17.911Z,71.57
2017-10-29T16:40:52.814Z,71.74
2017-10-29T16:43:27.843Z,72.05
2017-10-29T16:46:03.135Z,72.24
2017-10-29T16:48:37.971Z,72.53
2017-10-29T16:51:12.507Z,74.69
2017-10-29T16:53:47.526Z,72.80
2017-10-29T16:56:22.227Z,71.83
2017-10-29T16:58:56.695Z,72.56
2017-10-29T17:01:31.595Z,72.61
2017-10-29T17:04:06.327Z,73.49
2017-10-29T17:06:41.167Z,74.29
2017-10-29T17:09:15.448Z,75.16
2017-10-29T17:11:50.255Z,75.46
2017-10-29T17:14:25.139Z,75.85
2017-10-29T17:16:59.815Z,76.38
2017-10-29T17:19:34.751Z,76.31
2017-10-29T17:22:09.443Z,76.55
2017-10-29T17:24:43.647Z,76.70
2017-10-29T17:27:18.413Z,76.31
2017-10-29T17:29:53.490Z,76.39
2017-10-29T17:32:28.105Z,76.27
2017-10-29T17:35:03.056Z,76.33
2017-10-29T17:37:37.959Z,77.70
2017-10-29T17:40:12.900Z,76.55
2017-10-29T17:42:47.466Z,76.50
2017-10-29T17:45:22.038Z,76.70
2017-10-29T17:47:56.777Z,77.19
2017-10-29T17:50:32.495Z,77.83
2017-10-29T17:53:07.087Z,78.49
2017-10-29T17:55:41.800Z,78.37
2017-10-29T17:58:16.538Z,78.61
2017-10-29T18:00:51.255Z,78.90
2017-10-29T18:03:25.966Z,79.29
2017-10-29T18:06:00.879Z,79.41
2017-10-29T18:08:35.562Z,79.91
2017-10-29T18:11:10.823Z,80.41
2017-10-29T18:13:45.363Z,80.98
2017-10-29T18:16:20.362Z,81.29
2017-10-29T18:18:54.844Z,81.22
2017-10-29T18:21:29.784Z,81.05
2017-10-29T18:24:04.975Z,81.23
2017-10-29T18:26:39.619Z,81.11
2017-10-29T18:29:13.935Z,80.97
2017-10-29T18:31:49.019Z,80.93
2017-10-29T18:34:23.759Z,81.03
2017-10-29T18:36:59.634Z,81.06
2017-10-29T18:39:34.235Z,80.98
2017-10-29T18:42:09.194Z,80.99
2017-10-29T18:44:44.179Z,81.75
2017-10-29T18:47:18.962Z,80.65
2017-10-29T18:49:53.707Z,80.28
2017-10-29T18:52:28.540Z,79.85
2017-10-29T18:55:03.214Z,79.88
2017-10-29T18:57:38.091Z,79.39
2017-10-29T19:00:12.843Z,78.95
2017-10-29T19:02:47.488Z,78.49
2017-10-29T19:05:22.214Z,78.15
2017-10-29T19:07:56.927Z,77.89
2017-10-29T19:10:31.471Z,78.01
2017-10-29T19:13:06.127Z,77.94
2017-10-29T19:15:40.834Z,76.90
2017-10-29T19:18:16.571Z,76.83
2017-10-29T19:20:51.218Z,77.02
2017-10-29T19:23:25.839Z,77.36
2017-10-29T19:26:00.529Z,78.13
2017-10-29T19:28:35.334Z,76.82
2017-10-29T19:31:09.951Z,76.92
2017-10-29T19:33:45.631Z,76.75
2017-10-29T19:36:20.305Z,76.55
2017-10-29T19:38:54.864Z,76.21
2017-10-29T19:41:29.939Z,77.58
2017-10-29T19:44:05.986Z,76.81
2017-10-29T19:46:40.388Z,76.74
2017-10-29T19:49:15.192Z,76.83
2017-10-29T19:51:50.246Z,76.59
2017-10-29T19:54:24.943Z,77.01
2017-10-29T19:57:00.539Z,76.98
2017-10-29T19:59:35.735Z,77.20
2017-10-29T20:02:10.964Z,77.44
2017-10-29T20:04:45.811Z,77.21
2017-10-29T20:07:20.394Z,77.71
2017-10-29T20:09:55.123Z,77.72
2017-10-29T20:12:30.836Z,77.64
2017-10-29T20:15:05.522Z,77.81
2017-10-29T20:17:40.472Z,77.89
2017-10-29T20:20:15.230Z,78.19
2017-10-29T20:22:50.039Z,77.05
2017-10-29T20:25:24.643Z,77.05
2017-10-29T20:27:59.286Z,76.94
2017-10-29T20:30:33.516Z,77.09
2017-10-29T20:33:08.624Z,77.14
2017-10-29T20:35:43.432Z,76.81
2017-10-29T20:38:18.306Z,76.78
2017-10-29T20:40:53.027Z,77.09
2017-10-29T20:43:27.894Z,77.61
2017-10-29T20:46:02.605Z,77.64
2017-10-29T20:48:37.196Z,78.00
2017-10-29T20:51:13.016Z,78.52
2017-10-29T20:53:47.860Z,78.83
2017-10-29T20:56:22.680Z,79.00
2017-10-29T20:58:57.631Z,79.08
2017-10-29T21:01:32.257Z,79.50
2017-10-29T21:04:07.872Z,80.11
2017-10-29T21:06:42.764Z,80.74
2017-10-29T21:09:17.836Z,81.52
2017-10-29T21:11:52.726Z,82.64
2017-10-29T21:14:27.458Z,83.22
2017-10-29T21:17:02.016Z,83.33
2017-10-29T21:19:36.980Z,83.61
2017-10-29T21:22:12.773Z,84.27
2017-10-29T21:24:48.031Z,84.54
2017-10-29T21:27:24.854Z,84.80
2017-10-29T21:30:00.099Z,84.89
2017-10-29T21:32:34.999Z,84.96
2017-10-29T21:35:10.849Z,85.11
2017-10-29T21:37:45.475Z,85.09
2017-10-29T21:40:20.410Z,85.18
2017-10-29T21:42:55.115Z,85.27
2017-10-29T21:45:29.759Z,85.37
2017-10-29T21:48:04.643Z,85.36
2017-10-29T21:50:39.250Z,85.58
2017-10-29T21:53:14.167Z,85.73
2017-10-29T21:55:49.012Z,85.70
2017-10-29T21:58:24.618Z,85.51
2017-10-29T22:00:59.759Z,84.97
2017-10-29T22:03:34.583Z,85.01
2017-10-29T22:06:09.446Z,85.06
2017-10-29T22:08:44.131Z,84.51
2017-10-29T22:11:19.988Z,84.22
2017-10-29T22:13:54.570Z,83.84
2017-10-29T22:16:29.259Z,83.84
2017-10-29T22:19:03.747Z,84.02
2017-10-29T22:21:38.838Z,83.95
2017-10-29T22:24:13.556Z,83.87
2017-10-29T22:26:48.486Z,83.58
2017-10-29T22:29:22.979Z,83.27
2017-10-29T22:31:58.000Z,83.42
2017-10-29T22:34:33.568Z,83.75
2017-10-29T22:37:08.287Z,84.08
2017-10-29T22:39:43.179Z,84.32
2017-10-29T22:42:17.921Z,84.39
2017-10-29T22:44:52.631Z,84.60
2017-10-29T22:47:27.333Z,84.79
2017-10-29T22:50:02.039Z,85.36
2017-10-29T22:52:37.683Z,85.37
2017-10-29T22:55:12.227Z,84.72
2017-10-29T22:57:46.995Z,84.53
2017-10-29T23:00:22.058Z,84.50
2017-10-29T23:02:56.438Z,84.61
2017-10-29T23:05:42.571Z,84.64
2017-10-29T23:08:17.280Z,85.15
2017-10-29T23:10:52.486Z,85.15
2017-10-29T23:13:27.155Z,85.07
2017-10-29T23:16:02.275Z,84.66
2017-10-29T23:18:37.182Z,85.05
2017-10-29T23:21:11.530Z,84.40
2017-10-29T23:23:46.236Z,84.40
2017-10-29T23:26:21.056Z,84.23
2017-10-29T23:28:55.764Z,83.59
2017-10-29T23:31:30.559Z,83.61
2017-10-29T23:34:05.447Z,84.18
2017-10-29T23:36:40.195Z,84.61
2017-10-29T23:39:14.990Z,84.85
2017-10-29T23:41:49.886Z,84.98
2017-10-29T23:44:24.695Z,85.31
2017-10-29T23:46:59.307Z,85.55
2017-10-29T23:49:33.959Z,85.97
2017-10-29T23:52:08.630Z,86.79
2017-10-29T23:54:43.163Z,87.47
2017-10-29T23:57:17.987Z,87.30
2017-10-29T23:59:52.765Z,87.77
